Latest Weather Observations for Viewbank

IDV60901

Issued at 9:11 pm EDT Friday 24 March 2017 (issued every 10 minutes, with the page automatically refreshed every 10 minutes)

About weather observations | Map of Melbourne area stations | Latest observations for Melbourne area | Other Formats
Station Details ID: 086068 Name: VIEWBANK Lat: -37.74 Lon: 145.10 Height: 66.1 m
Data from the previous 72 hours. | See also: Recent months at Viewbank
Date/Time
EDT
Temp
°C
App
Temp
°C
Dew
Point
°C
Rel
Hum
%
Delta-T
°C
Wind Press
QNH
hPa
Press
MSL
hPa
Rain since
9am
mm
Dir  Spd
km/h
Gust
km/h
Spd
kts
Gust
kts
24/09:00pm 20.5 21.0 15.1 71 3.2 SSE 6 7 3 4 1015.6 1015.4 0.0
24/08:30pm 21.2 22.1 15.1 68 3.6 ESE 4 7 2 4 1015.2 1015.0 0.0
24/08:00pm 21.6 22.9 15.2 67 3.8 SE 2 6 1 3 1014.9 1014.7 0.0
24/07:30pm 22.2 22.7 15.1 64 4.2 WSW 6 7 3 4 1015.1 1014.9 0.0
24/07:00pm 23.0 23.4 15.3 62 4.6 WSW 7 11 4 6 1014.8 1014.6 0.0
24/06:30pm 23.8 23.5 14.5 56 5.5 SW 9 11 5 6 1014.7 1014.5 0.0
24/06:00pm 24.7 24.7 14.2 52 6.2 WSW 7 11 4 6 1015.2 1015.0 0.0
24/05:30pm 25.4 25.1 13.3 47 7.1 SW 7 11 4 6 1014.8 1014.6 0.0
24/05:00pm 25.5 25.3 13.7 48 7.0 SSW 7 13 4 7 1014.9 1014.7 0.0
24/04:30pm 25.3 25.5 13.2 47 7.1 ESE 4 7 2 4 1015.0 1014.8 0.0
24/04:00pm 25.7 25.3 12.5 44 7.6 SSW 6 11 3 6 1015.1 1014.9 0.0
24/03:30pm 25.9 25.6 12.7 44 7.7 SW 6 9 3 5 1015.5 1015.3 0.0
24/03:00pm 25.7 26.2 13.9 48 7.0 SSW 4 9 2 5 1016.2 1016.0 0.0
24/02:30pm 24.0 24.9 12.9 50 6.4 CALM 0 6 0 3 1016.7 1016.5 0.0
24/02:00pm 24.3 24.0 13.2 50 6.5 SE 7 11 4 6 1017.1 1016.9 0.0
24/01:30pm 24.5 24.4 13.4 50 6.5 E 6 11 3 6 1017.9 1017.7 0.0
24/01:00pm 23.0 22.9 13.8 56 5.4 SE 7 11 4 6 1018.2 1018.0 0.0
24/12:30pm 21.6 21.7 13.8 61 4.5 SE 6 11 3 6 1019.0 1018.8 0.0
24/12:00pm 20.3 20.4 14.0 67 3.6 SE 6 9 3 5 1019.4 1019.2 0.0
24/11:30am 19.2 19.4 14.2 73 2.9 E 6 9 3 5 1019.7 1019.5 0.0
24/11:00am 18.0 17.7 14.5 80 2.0 ESE 9 15 5 8 1019.9 1019.7 0.0
24/10:30am 16.9 17.3 14.7 87 1.3 ENE 6 11 3 6 1020.0 1019.8 0.0
24/10:00am 15.9 16.6 15.7 99 0.1 E 6 9 3 5 1020.1 1019.9 0.0
24/09:30am 14.8 15.2 14.8 100 0.0 ENE 6 9 3 5 1020.2 1020.0 0.0
24/09:00am 13.1 12.9 13.1 100 0.0 ENE 6 9 3 5 1020.1 1019.9 0.0
24/08:30am 12.0 11.5 12.0 100 0.0 ENE 6 9 3 5 1019.8 1019.6 0.0
24/08:00am 11.8 12.4 11.8 100 0.0 CALM 0 7 0 4 1019.8 1019.6 0.0
24/07:30am 11.5 11.2 11.5 100 0.0 ENE 4 9 2 5 1019.1 1018.9 0.0
24/07:00am 11.9 11.4 11.9 100 0.0 NNE 6 9 3 5 1018.9 1018.7 0.0
24/06:30am 12.2 12.5 12.2 100 0.0 N 2 6 1 3 1018.8 1018.6 0.0
24/06:00am 12.5 13.3 12.5 100 0.0 CALM 0 0 0 0 1018.9 1018.7 0.0
24/05:30am 12.3 13.0 12.3 100 0.0 CALM 0 0 0 0 1018.8 1018.6 0.0
24/05:00am 12.3 12.6 12.3 100 0.0 N 2 6 1 3 1018.7 1018.5 0.0
24/04:30am 12.6 12.3 12.6 100 0.0 NNW 6 7 3 4 1018.8 1018.6 0.0
24/04:00am 13.0 13.6 13.0 100 0.0 WNW 2 7 1 4 1018.8 1018.6 0.0
24/03:30am 13.2 13.8 13.2 100 0.0 WNW 2 6 1 3 1019.3 1019.1 0.0
24/03:00am 13.5 14.5 13.3 99 0.1 CALM 0 0 0 0 1019.6 1019.4 0.0
24/02:30am 14.1 15.3 13.9 99 0.1 CALM 0 0 0 0 1019.7 1019.5 0.0
24/02:00am 14.5 15.5 14.2 98 0.2 WNW 2 6 1 3 1019.8 1019.6 0.0
24/01:30am 14.9 16.3 14.3 96 0.3 CALM 0 0 0 0 1020.0 1019.8 0.0
24/01:00am 15.4 15.6 14.1 92 0.7 W 6 7 3 4 1019.9 1019.7 0.0
24/12:30am 15.6 16.5 14.1 91 0.9 SSW 2 6 1 3 1019.8 1019.6 0.0
24/12:00am 16.1 17.0 14.1 88 1.1 S 2 6 1 3 1019.9 1019.7 0.0
 
Date/Time
EDT
Temp
°C
App
Temp
°C
Dew
Point
°C
Rel
Hum
%
Delta-T
°C
Wind Press
QNH
hPa
Press
MSL
hPa
Rain since
9am
mm
Dir  Spd
km/h
Gust
km/h
Spd
kts
Gust
kts
23/11:30pm 16.6 16.7 13.9 84 1.5 SSE 6 9 3 5 1020.1 1019.9 0.0
23/11:00pm 17.0 17.2 14.1 83 1.7 S 6 15 3 8 1020.1 1019.9 0.0
23/10:30pm 17.4 17.6 14.3 82 1.8 SSW 6 13 3 7 1020.5 1020.3 0.0
23/10:00pm 17.7 17.6 13.8 78 2.2 S 7 15 4 8 1020.2 1020.0 0.0
23/09:30pm 17.9 18.8 14.0 78 2.2 S 2 9 1 5 1019.7 1019.5 0.0
23/09:00pm 18.6 18.8 14.1 75 2.6 SSW 6 15 3 8 1019.5 1019.3 0.0
23/08:30pm 19.2 18.7 13.8 71 3.1 SSE 9 15 5 8 1018.9 1018.7 0.0
23/08:00pm 19.8 18.7 14.2 70 3.2 S 13 20 7 11 1018.4 1018.2 0.0
23/07:30pm 20.2 19.8 14.1 68 3.5 S 9 20 5 11 1018.3 1018.1 0.0
23/07:00pm 21.3 19.7 14.0 63 4.2 SSW 15 33 8 18 1018.1 1017.9 0.0
23/06:30pm 22.5 21.2 13.8 58 5.1 SSW 13 32 7 17 1017.9 1017.7 0.0
23/06:00pm 23.4 22.1 13.8 54 5.6 SSW 13 26 7 14 1017.7 1017.5 0.0
23/05:30pm 23.8 22.5 13.6 52 6.0 SSW 13 20 7 11 1017.6 1017.4 0.0
23/05:00pm 24.1 22.7 13.3 51 6.3 S 13 26 7 14 1017.6 1017.4 0.0
23/04:30pm 24.6 23.7 13.8 51 6.4 SSW 11 22 6 12 1017.8 1017.6 0.0
23/04:00pm 24.7 23.6 14.2 52 6.2 SSW 13 24 7 13 1017.8 1017.6 0.0
23/03:30pm 24.9 24.2 14.4 52 6.2 SSE 11 22 6 12 1018.0 1017.8 0.0
23/03:00pm 24.7 24.1 14.5 53 6.1 SSW 11 17 6 9 1018.2 1018.0 0.0
23/02:30pm 24.2 23.6 13.4 51 6.3 S 9 19 5 10 1018.5 1018.3 0.0
23/02:00pm 24.3 23.4 13.8 52 6.2 SW 11 19 6 10 1018.9 1018.7 0.0
23/01:30pm 22.9 22.3 13.4 55 5.5 SSW 9 17 5 9 1019.1 1018.9 0.0
23/01:00pm 21.9 20.9 13.5 59 4.8 SSW 11 19 6 10 1019.5 1019.3 0.0
23/12:30pm 21.5 21.4 13.2 59 4.8 S 6 19 3 10 1019.8 1019.6 0.0
23/12:00pm 22.0 21.7 13.4 58 5.0 SE 7 13 4 7 1020.0 1019.8 0.0
23/11:30am 20.6 20.5 13.3 63 4.2 ESE 6 9 3 5 1020.3 1020.1 0.0
23/11:00am 20.1 20.0 13.8 67 3.6 S 7 15 4 8 1020.4 1020.2 0.0
23/10:30am 19.4 18.8 13.6 69 3.3 E 9 15 5 8 1020.4 1020.2 0.0
23/10:00am 18.6 19.3 14.5 77 2.4 E 4 9 2 5 1020.4 1020.2 0.0
23/09:30am 18.4 17.9 14.9 80 2.0 SE 11 19 6 10 1020.1 1019.9 0.0
23/09:00am 17.2 17.7 15.5 90 1.0 SSE 7 13 4 7 1020.1 1019.9 0.0
23/08:30am 14.9 15.4 14.9 100 0.0 WSW 6 7 3 4 1019.9 1019.7 0.0
23/08:00am 14.6 14.8 14.6 100 0.0 WSW 7 9 4 5 1019.7 1019.5 0.0
23/07:30am 14.5 14.6 14.5 100 0.0 WSW 7 9 4 5 1019.4 1019.2 0.0
23/07:00am 14.6 14.9 14.4 99 0.1 WSW 6 7 3 4 1019.1 1018.9 0.0
23/06:30am 14.6 14.9 14.4 99 0.1 SW 6 7 3 4 1019.0 1018.8 0.0
23/06:00am 14.9 14.7 14.7 99 0.1 SSW 9 13 5 7 1018.9 1018.7 0.0
23/05:30am 15.1 15.3 14.6 97 0.3 SSW 7 13 4 7 1018.8 1018.6 0.0
23/05:00am 14.9 15.1 14.7 99 0.1 SSW 7 11 4 6 1018.6 1018.4 0.0
23/04:30am 14.8 15.0 14.6 99 0.1 SW 7 11 4 6 1018.6 1018.4 0.0
23/04:00am 15.2 15.4 14.2 94 0.6 SSW 6 9 3 5 1018.4 1018.2 0.0
23/03:30am 15.7 16.2 14.1 90 0.9 SSE 4 13 2 7 1018.4 1018.2 0.0
23/03:00am 16.2 16.1 14.0 87 1.2 SE 7 17 4 9 1018.5 1018.3 0.0
23/02:30am 16.1 15.6 13.9 87 1.2 SSE 9 20 5 11 1018.4 1018.2 0.0
23/02:00am 16.2 15.7 13.9 86 1.3 SSE 9 19 5 10 1018.8 1018.6 0.0
23/01:30am 16.3 16.2 14.0 86 1.3 S 7 17 4 9 1019.0 1018.8 0.0
23/01:00am 16.5 16.4 14.0 85 1.4 SSE 7 15 4 8 1019.0 1018.8 0.0
23/12:30am 16.8 16.4 14.1 84 1.5 S 9 20 5 11 1019.0 1018.8 0.0
23/12:00am 16.9 16.5 14.2 84 1.5 SSE 9 19 5 10 1019.0 1018.8 0.0
 
Date/Time
EDT
Temp
°C
App
Temp
°C
Dew
Point
°C
Rel
Hum
%
Delta-T
°C
Wind Press
QNH
hPa
Press
MSL
hPa
Rain since
9am
mm
Dir  Spd
km/h
Gust
km/h
Spd
kts
Gust
kts
22/11:30pm 16.9 16.6 14.4 85 1.4 S 9 19 5 10 1018.9 1018.7 0.0
22/11:00pm 17.2 16.7 14.8 86 1.4 S 11 20 6 11 1019.2 1019.0 0.0
22/10:30pm 17.5 16.6 13.8 79 2.1 S 11 20 6 11 1019.0 1018.8 0.0
22/10:00pm 17.5 16.2 13.6 78 2.2 S 13 28 7 15 1018.7 1018.5 0.0
22/09:30pm 18.1 17.3 14.0 77 2.4 SSE 11 24 6 13 1018.6 1018.4 0.0
22/09:00pm 17.9 16.7 15.0 83 1.7 S 15 28 8 15 1018.2 1018.0 0.0
22/08:30pm 18.0 17.0 14.5 80 2.0 S 13 26 7 14 1017.8 1017.6 0.0
22/08:00pm 18.2 17.2 14.5 79 2.1 S 13 22 7 12 1017.1 1016.9 0.0
22/07:30pm 18.4 16.6 14.5 78 2.3 SSE 17 33 9 18 1016.7 1016.5 0.0
22/07:00pm 19.1 18.1 14.6 75 2.6 SSE 13 30 7 16 1016.6 1016.4 0.0
22/06:30pm 19.9 18.6 14.9 73 2.9 S 15 35 8 19 1016.3 1016.1 0.0
22/06:00pm 20.6 18.3 14.7 69 3.5 SSE 20 43 11 23 1016.1 1015.9 0.0
22/05:30pm 20.9 19.1 14.5 67 3.8 S 17 30 9 16 1015.9 1015.7 0.0
22/05:00pm 21.5 20.1 14.6 65 4.1 S 15 30 8 16 1015.9 1015.7 0.0
22/04:30pm 21.5 19.3 14.9 66 3.9 SSE 20 43 11 23 1015.6 1015.4 0.0
22/04:00pm 21.5 20.0 15.3 68 3.7 S 17 33 9 18 1015.6 1015.4 0.0
22/03:30pm 21.1 19.7 15.6 71 3.3 S 17 28 9 15 1015.8 1015.6 0.0
22/03:00pm 21.0 19.8 16.2 74 2.9 S 17 32 9 17 1016.0 1015.8 0.0
22/02:30pm 20.3 18.5 15.5 74 2.9 S 19 35 10 19 1015.9 1015.7 0.0
22/02:00pm 20.6 19.0 16.0 75 2.8 SSE 19 43 10 23 1015.9 1015.7 0.0
22/01:30pm 20.5 20.1 16.3 77 2.5 S 13 28 7 15 1016.0 1015.8 0.0
22/01:00pm 20.1 20.6 17.5 85 1.6 S 11 24 6 13 1016.2 1016.0 0.0
22/12:30pm 19.4 19.9 17.5 89 1.2 S 11 22 6 12 1016.4 1016.2 0.0
22/12:00pm 18.8 18.9 17.5 92 0.8 SSE 13 26 7 14 1016.6 1016.4 0.0
22/11:30am 18.6 19.5 18.3 98 0.2 S 11 19 6 10 1016.6 1016.4 0.0
22/11:00am 18.2 18.5 18.0 99 0.1 S 13 26 7 14 1016.7 1016.5 0.0
22/10:30am 17.9 18.2 17.9 100 0.0 S 13 22 7 12 1016.5 1016.3 0.0
22/10:00am 17.9 18.2 17.9 100 0.0 SSW 13 32 7 17 1016.3 1016.1 0.0
22/09:30am 17.7 18.3 17.7 100 0.0 SSW 11 26 6 14 1016.0 1015.8 0.0
22/09:00am 17.7 18.3 17.7 100 0.0 SSW 11 20 6 11 1015.8 1015.6 8.4
22/08:30am 17.5 17.3 17.5 100 0.0 SSW 15 22 8 12 1015.5 1015.3 8.4
22/08:00am 17.4 18.2 17.4 100 0.0 SSW 9 19 5 10 1015.2 1015.0 8.2
22/07:30am 17.6 19.1 17.6 100 0.0 S 6 11 3 6 1014.6 1014.4 8.2
22/07:00am 17.7 18.3 17.7 100 0.0 SSW 11 17 6 9 1014.1 1013.9 8.0
22/06:30am 17.9 18.2 17.9 100 0.0 SW 13 17 7 9 1013.5 1013.3 7.8
22/06:00am 18.1 18.9 18.1 100 0.0 SW 11 19 6 10 1013.1 1012.9 7.8
22/05:30am 18.3 18.8 18.3 100 0.0 SW 13 19 7 10 1012.9 1012.7 7.8
22/05:00am 19.4 20.7 19.4 100 0.0 WSW 11 17 6 9 1012.6 1012.4 7.8
22/04:30am 19.6 21.4 19.6 100 0.0 W 9 17 5 9 1012.5 1012.3 7.8
22/04:00am 19.5 20.5 19.5 100 0.0 WNW 13 22 7 12 1012.1 1012.0 7.8
22/03:30am 19.7 21.6 19.7 100 0.0 WNW 9 13 5 7 1012.0 1011.9 7.8
22/03:00am 19.8 21.7 19.8 100 0.0 NW 9 17 5 9 1011.9 1011.8 7.8
22/02:30am 19.9 22.2 19.9 100 0.0 WNW 7 13 4 7 1011.6 1011.5 7.8
22/02:00am 19.9 22.4 19.9 100 0.0 NW 6 13 3 7 1011.6 1011.5 7.8
22/01:30am 19.9 22.4 19.9 100 0.0 WNW 6 11 3 6 1011.5 1011.4 7.8
22/01:00am 19.9 22.4 19.9 100 0.0 WNW 6 13 3 7 1011.3 1011.2 7.8
22/12:30am 20.0 22.0 20.0 100 0.0 NW 9 15 5 8 1011.1 1011.0 7.8
22/12:00am 20.0 22.4 20.0 100 0.0 WNW 7 17 4 9 1010.9 1010.8 7.8
 
Date/Time
EDT
Temp
°C
App
Temp
°C
Dew
Point
°C
Rel
Hum
%
Delta-T
°C
Wind Press
QNH
hPa
Press
MSL
hPa
Rain since
9am
mm
Dir  Spd
km/h
Gust
km/h
Spd
kts
Gust
kts
21/11:30pm 20.2 22.7 20.2 100 0.0 WNW 7 15 4 8 1011.1 1011.0 7.8
21/11:00pm 20.1 22.2 20.1 100 0.0 NW 9 13 5 7 1011.2 1011.1 7.8
21/10:30pm 20.3 22.5 20.3 100 0.0 WNW 9 13 5 7 1011.1 1011.0 7.8
21/10:00pm 21.0 23.0 20.8 99 0.1 WNW 11 20 6 11 1010.9 1010.8 7.8
21/09:30pm 21.5 23.5 21.5 100 0.0 W 13 22 7 12 1010.6 1010.5 7.8

Latest Capital City Observations: Canberra | Sydney | Melbourne | Brisbane | Adelaide | Perth | Hobart | Darwin

Other Formats:

Comma delimited format used in spreadsheet applications
http://www.bom.gov.au/fwo/IDV60901/IDV60901.95874.axf

JavaScript Object Notation format (JSON) in row-major order
http://www.bom.gov.au/fwo/IDV60901/IDV60901.95874.json